Time;durP1;ratioP1;P1;durP2;ratioP2;P2;SDS_P1;SDS_P2;PMS_P1;PMS_P2;Temp;Humidity;BMP_temperature;BMP_pressure;BME280_temperature;BME280_humidity;BME280_pressure;Samples;Min_cycle;Max_cycle;Signal;HPM_P1;HPM_P2
2023/07/05 00:00:43;;;;;;;18.27;14.60;;;;;;;-143.21;77.21;71229.50;5132238;27;20199;-78
2023/07/05 00:03:10;;;;;;;19.35;14.40;;;;;;;-143.21;77.09;71231.50;5126810;27;20202;-79
2023/07/05 00:05:37;;;;;;;20.17;14.70;;;;;;;-143.21;77.14;71223.56;5108735;28;21078;-76
2023/07/05 00:08:05;;;;;;;23.60;14.52;;;;;;;-143.21;77.24;71223.56;5107658;28;20692;-77
2023/07/05 00:10:32;;;;;;;22.58;14.88;;;;;;;-143.21;77.07;71225.53;5107449;28;20216;-76
2023/07/05 00:13:00;;;;;;;20.52;14.93;;;;;;;-143.21;77.21;71229.50;5106841;28;20208;-76
2023/07/05 00:15:27;;;;;;;23.50;14.52;;;;;;;-143.21;77.34;71215.63;5106705;28;20319;-76
2023/07/05 00:17:55;;;;;;;21.02;14.10;;;;;;;-143.21;77.11;71207.69;5107299;28;20250;-76
2023/07/05 00:20:22;;;;;;;19.25;14.80;;;;;;;-143.21;77.12;71209.69;5106888;28;20292;-76
2023/07/05 00:22:49;;;;;;;26.50;15.73;;;;;;;-143.21;77.21;71215.63;5107330;28;20644;-76
2023/07/05 00:25:16;;;;;;;25.40;19.27;;;;;;;-143.21;77.73;71229.50;5107059;27;20201;-76
2023/07/05 00:27:43;;;;;;;30.17;21.35;;;;;;;-143.21;78.13;71245.38;5106851;27;20683;-75
2023/07/05 00:30:11;;;;;;;27.20;19.58;;;;;;;-143.21;78.83;71259.25;5110372;27;20653;-75
2023/07/05 00:32:37;;;;;;;22.42;16.77;;;;;;;-143.21;79.32;71271.13;5108095;28;20204;-75
2023/07/05 00:35:07;;;;;;;21.65;15.98;;;;;;;-143.21;79.26;71259.25;5106394;28;20242;-75
2023/07/05 00:37:33;;;;;;;26.52;15.85;;;;;;;-143.21;79.41;71257.25;5107774;28;20204;-75
2023/07/05 00:40:00;;;;;;;19.35;13.82;;;;;;;-143.21;79.79;71257.25;5106976;28;20216;-75
2023/07/05 00:42:27;;;;;;;20.70;14.10;;;;;;;-143.21;79.54;71261.22;5107280;28;20584;-75
2023/07/05 00:45:36;;;;;;;19.73;13.90;;;;;;;-143.21;79.36;71261.22;5113279;27;20230;-75
2023/07/05 00:48:03;;;;;;;19.75;12.48;;;;;;;-143.21;79.93;71296.91;5109033;28;20303;-75
2023/07/05 00:50:39;;;;;;;18.60;12.93;;;;;;;-143.21;80.65;71310.78;5109484;27;20620;-75
2023/07/05 00:53:07;;;;;;;15.70;12.23;;;;;;;-143.21;81.11;71312.78;5109847;27;20202;-75
2023/07/05 00:55:34;;;;;;;18.13;12.30;;;;;;;-143.21;81.16;71308.81;5109641;28;20646;-75
2023/07/05 00:58:03;;;;;;;21.38;12.23;;;;;;;-143.21;80.83;71304.84;5111340;27;20203;-75
2023/07/05 01:00:31;;;;;;;18.88;12.07;;;;;;;-143.21;80.63;71296.91;5110177;27;20243;-75
2023/07/05 01:03:00;;;;;;;15.15;11.30;;;;;;;-143.21;80.47;71294.94;5108846;28;20207;-75
2023/07/05 01:05:27;;;;;;;14.25;11.18;;;;;;;-143.21;79.77;71288.97;5108579;27;20203;-75
2023/07/05 01:07:55;;;;;;;16.08;11.63;;;;;;;-143.21;80.00;71294.94;5108641;28;20577;-75
2023/07/05 01:10:25;;;;;;;16.55;12.27;;;;;;;-143.21;80.11;71290.97;5109071;28;20215;-76
2023/07/05 01:13:01;;;;;;;15.43;11.63;;;;;;;-143.21;80.24;71302.84;5108336;28;20211;-75
2023/07/05 01:15:34;;;;;;;21.35;12.50;;;;;;;-143.21;80.47;71302.84;5112615;27;20219;-75
2023/07/05 01:18:10;;;;;;;15.18;11.90;;;;;;;-143.21;80.16;71304.84;5109122;28;20658;-75
2023/07/05 01:20:43;;;;;;;22.67;12.27;;;;;;;-143.21;80.02;71304.84;5109596;28;20629;-74
2023/07/05 01:23:34;;;;;;;17.83;12.13;;;;;;;-143.21;79.89;71304.84;5109259;28;20218;-75
2023/07/05 01:26:25;;;;;;;17.20;11.50;;;;;;;-143.21;79.97;71304.84;5105896;28;20212;-74
2023/07/05 01:29:23;;;;;;;23.40;12.65;;;;;;;-143.21;79.84;71298.91;5110023;27;20196;-75
2023/07/05 01:31:58;;;;;;;20.90;12.50;;;;;;;-143.21;80.21;71294.94;5109092;28;20211;-75
2023/07/05 01:34:39;;;;;;;19.98;12.00;;;;;;;-143.21;80.13;71292.94;5112433;28;20213;-74
2023/07/05 01:37:07;;;;;;;20.02;12.43;;;;;;;-143.21;80.47;71296.91;5109463;28;20299;-75
2023/07/05 01:39:34;;;;;;;17.60;12.07;;;;;;;-143.21;80.04;71292.94;5109280;28;20195;-75
2023/07/05 01:42:03;;;;;;;18.38;12.20;;;;;;;-143.21;80.09;71283.03;5108429;28;20942;-76
2023/07/05 01:44:31;;;;;;;17.02;12.57;;;;;;;-143.21;80.21;71288.97;5108653;28;20257;-74
2023/07/05 01:47:07;;;;;;;17.67;12.40;;;;;;;-143.21;80.43;71288.97;5109622;28;20208;-75
2023/07/05 01:49:47;;;;;;;16.63;11.90;;;;;;;-143.21;80.89;71294.94;5108895;28;20204;-75
2023/07/05 01:52:28;;;;;;;16.23;12.05;;;;;;;-143.21;81.13;71296.91;5108385;28;20203;-75
2023/07/05 01:55:04;;;;;;;15.43;12.27;;;;;;;-143.21;81.30;71300.88;5108833;28;20214;-76
2023/07/05 01:57:36;;;;;;;17.35;11.80;;;;;;;-143.21;81.48;71296.91;5108543;28;20222;-76
2023/07/05 02:00:07;;;;;;;22.55;12.40;;;;;;;-143.21;81.42;71288.97;5108585;28;20248;-76
2023/07/05 02:02:40;;;;;;;22.48;12.98;;;;;;;-143.21;81.57;71294.94;5108958;28;20567;-76
2023/07/05 02:05:10;;;;;;;23.67;12.48;;;;;;;-143.21;81.63;71294.94;5109085;28;20203;-76
2023/07/05 02:07:37;;;;;;;17.52;11.98;;;;;;;-143.21;81.61;71292.94;5109118;28;20204;-75
2023/07/05 02:10:05;;;;;;;16.05;11.63;;;;;;;-143.21;81.48;71292.94;5110138;28;20202;-75
2023/07/05 02:12:32;;;;;;;17.52;12.13;;;;;;;-143.21;81.74;71287.00;5107925;28;20646;-76
2023/07/05 02:14:59;;;;;;;18.38;11.70;;;;;;;-143.21;81.29;71285.03;5107266;28;20733;-76
2023/07/05 02:17:25;;;;;;;15.68;12.75;;;;;;;-143.21;81.67;71288.97;5107778;28;20636;-76
2023/07/05 02:19:53;;;;;;;19.70;11.95;;;;;;;-143.21;81.93;71292.94;5107287;28;20630;-76
2023/07/05 02:22:20;;;;;;;17.63;12.52;;;;;;;-143.21;82.12;71300.88;5107683;28;20204;-76
2023/07/05 02:24:50;;;;;;;22.02;12.00;;;;;;;-143.21;82.04;71290.97;5108969;28;20272;-74
2023/07/05 02:27:17;;;;;;;14.43;12.15;;;;;;;-143.21;82.26;71302.84;5111878;27;20219;-75
2023/07/05 02:29:44;;;;;;;17.35;12.55;;;;;;;-143.21;82.29;71304.84;5112376;28;20673;-75
2023/07/05 02:32:11;;;;;;;18.42;12.48;;;;;;;-143.21;82.41;71310.78;5112257;28;20206;-75
2023/07/05 02:34:40;;;;;;;24.48;12.75;;;;;;;-143.21;82.66;71312.78;5112221;27;20215;-76
2023/07/05 02:37:09;;;;;;;18.08;12.60;;;;;;;-143.21;82.64;71308.81;5112026;27;20649;-75
2023/07/05 02:39:36;;;;;;;20.35;12.55;;;;;;;-143.21;82.81;71310.78;5110583;27;20207;-75
2023/07/05 02:42:03;;;;;;;21.70;12.43;;;;;;;-143.21;82.94;71312.78;5111695;28;20224;-76
2023/07/05 02:44:30;;;;;;;19.20;12.43;;;;;;;-143.21;82.94;71316.75;5111368;28;20283;-76
2023/07/05 02:46:57;;;;;;;16.95;12.07;;;;;;;-143.21;83.04;71312.78;5111364;28;20197;-76
2023/07/05 02:49:24;;;;;;;20.60;12.18;;;;;;;-143.21;83.02;71316.75;5111662;28;20215;-76
2023/07/05 02:51:50;;;;;;;22.33;11.98;;;;;;;-143.21;83.21;71316.75;5111289;27;20200;-76
2023/07/05 02:54:19;;;;;;;21.13;12.75;;;;;;;-143.21;83.55;71324.66;5110173;28;20257;-76
2023/07/05 02:56:45;;;;;;;21.08;12.82;;;;;;;-143.21;83.72;71318.72;5111376;27;20227;-76
2023/07/05 02:59:12;;;;;;;16.65;12.00;;;;;;;-143.21;83.53;71312.78;5111035;28;20208;-76
2023/07/05 03:01:39;;;;;;;25.02;12.82;;;;;;;-143.21;83.57;71312.78;5111102;28;20196;-76
2023/07/05 03:04:06;;;;;;;24.48;12.40;;;;;;;-143.21;83.25;71310.78;5111775;28;20208;-76
2023/07/05 03:06:33;;;;;;;18.13;12.40;;;;;;;-143.21;83.59;71314.75;5111520;27;20200;-75
2023/07/05 03:09:02;;;;;;;18.77;12.73;;;;;;;-143.21;83.73;71318.72;5112945;27;20204;-75
2023/07/05 03:11:30;;;;;;;22.13;13.38;;;;;;;-143.21;84.05;71322.69;5111379;27;21190;-75
2023/07/05 03:13:57;;;;;;;23.02;13.20;;;;;;;-143.21;83.99;71320.69;5110592;28;20257;-74
2023/07/05 03:16:24;;;;;;;17.17;12.90;;;;;;;-143.21;84.05;71316.75;5111055;28;20706;-76
2023/07/05 03:18:50;;;;;;;22.60;13.20;;;;;;;-143.21;84.13;71316.75;5110932;27;20207;-75
2023/07/05 03:21:17;;;;;;;19.48;12.82;;;;;;;-143.21;84.07;71310.78;5110649;27;20265;-75
2023/07/05 03:23:44;;;;;;;17.40;12.45;;;;;;;-143.21;83.81;71304.84;5111021;27;20208;-75
2023/07/05 03:26:11;;;;;;;21.02;13.43;;;;;;;-143.21;83.93;71312.78;5110967;27;20608;-76
2023/07/05 03:28:40;;;;;;;20.77;12.50;;;;;;;-143.21;83.70;71310.78;5111111;27;20264;-76
2023/07/05 03:31:07;;;;;;;19.42;13.65;;;;;;;-143.21;83.71;71308.81;5110777;28;20223;-79
2023/07/05 03:33:35;;;;;;;23.15;13.65;;;;;;;-143.21;83.73;71314.75;5112287;27;20196;-79
2023/07/05 03:36:04;;;;;;;19.45;13.20;;;;;;;-143.21;83.65;71308.81;5111114;27;20235;-79
2023/07/05 03:38:33;;;;;;;26.42;13.52;;;;;;;-143.21;83.65;71302.84;5111294;28;20243;-79
2023/07/05 03:41:01;;;;;;;22.40;14.30;;;;;;;-143.21;83.33;71304.84;5110746;28;20216;-79
2023/07/05 03:43:29;;;;;;;19.65;13.98;;;;;;;-143.21;83.28;71304.84;5112989;27;20685;-79
2023/07/05 03:45:59;;;;;;;22.20;13.93;;;;;;;-143.21;83.11;71302.84;5112229;27;20192;-79
2023/07/05 03:48:26;;;;;;;22.65;14.48;;;;;;;-143.21;82.39;71312.78;5111967;27;20295;-79
2023/07/05 03:50:56;;;;;;;21.85;14.18;;;;;;;-143.21;82.08;71320.69;5114700;27;20223;-79
2023/07/05 03:53:23;;;;;;;20.00;13.65;;;;;;;-143.21;82.10;71318.72;5111644;28;20257;-80
2023/07/05 03:55:50;;;;;;;22.27;15.05;;;;;;;-143.21;82.10;71328.63;5110936;27;20203;-79
2023/07/05 03:58:17;;;;;;;20.42;14.73;;;;;;;-143.21;82.96;71332.59;5115099;27;20211;-78
2023/07/05 04:00:44;;;;;;;21.58;14.90;;;;;;;-143.21;83.41;71336.56;5111126;27;20203;-79
2023/07/05 04:03:13;;;;;;;21.00;14.73;;;;;;;-143.21;83.63;71338.53;5111180;27;20211;-78
2023/07/05 04:05:40;;;;;;;25.55;15.00;;;;;;;-143.21;83.72;71336.56;5111430;27;20208;-78
2023/07/05 04:08:07;;;;;;;27.38;13.48;;;;;;;-143.21;83.54;71324.66;5110781;28;20196;-78
2023/07/05 04:10:33;;;;;;;24.20;14.38;;;;;;;-143.21;83.48;71326.66;5115205;27;20196;-78
2023/07/05 04:13:04;;;;;;;29.23;13.50;;;;;;;-143.21;83.44;71324.66;5110620;28;20211;-79
2023/07/05 04:15:31;;;;;;;20.88;13.68;;;;;;;-143.21;82.83;71328.63;5113622;27;21342;-79
2023/07/05 04:17:57;;;;;;;20.58;13.80;;;;;;;-143.21;82.89;71340.53;5111584;27;20232;-79
2023/07/05 04:20:30;;;;;;;21.83;14.18;;;;;;;-143.21;82.98;71350.44;5110630;28;20203;-79
2023/07/05 04:22:59;;;;;;;24.13;14.52;;;;;;;-143.21;83.91;71376.22;5110291;28;20196;-76
2023/07/05 04:25:25;;;;;;;21.02;13.88;;;;;;;-143.21;84.70;71388.09;5109457;28;20208;-76
2023/07/05 04:27:52;;;;;;;24.65;14.88;;;;;;;-143.21;85.63;71405.94;5109230;28;20199;-76
2023/07/05 04:30:19;;;;;;;28.10;15.00;;;;;;;-143.21;85.05;71407.94;5109477;28;20542;-76
2023/07/05 04:32:46;;;;;;;27.77;16.30;;;;;;;-143.21;85.08;71407.94;5108977;27;20211;-76
2023/07/05 04:35:13;;;;;;;20.63;15.27;;;;;;;-143.21;85.38;71411.91;5108750;28;20709;-75
2023/07/05 04:37:41;;;;;;;23.08;14.77;;;;;;;-143.21;86.11;71419.84;5110027;28;20231;-76
2023/07/05 04:40:09;;;;;;;21.55;14.90;;;;;;;-143.21;86.67;71427.75;5110018;28;20196;-76
2023/07/05 04:42:35;;;;;;;21.50;15.43;;;;;;;-143.21;86.64;71417.84;5110043;28;20200;-76
2023/07/05 04:45:02;;;;;;;20.23;15.10;;;;;;;-143.21;86.74;71421.81;5109377;28;20208;-76
2023/07/05 04:47:29;;;;;;;23.20;15.43;;;;;;;-143.21;86.26;71409.91;5108510;28;20215;-76
2023/07/05 04:49:56;;;;;;;20.50;16.33;;;;;;;-143.21;85.70;71402.00;5108855;28;20223;-76
2023/07/05 04:52:23;;;;;;;23.25;15.95;;;;;;;-143.21;85.56;71403.97;5112713;27;20658;-76
2023/07/05 04:54:53;;;;;;;22.35;15.82;;;;;;;-143.21;85.31;71400.00;5109202;28;20215;-76
2023/07/05 04:57:20;;;;;;;22.00;15.40;;;;;;;-143.21;85.29;71396.03;5108974;28;20300;-76
2023/07/05 04:59:46;;;;;;;21.30;16.27;;;;;;;-143.21;85.69;71402.00;5108279;28;20196;-76
2023/07/05 05:02:15;;;;;;;26.45;16.70;;;;;;;-143.21;85.99;71403.97;5107550;27;20200;-75
2023/07/05 05:04:41;;;;;;;22.05;16.08;;;;;;;-143.21;86.24;71402.00;5108518;28;20200;-78
2023/07/05 05:07:09;;;;;;;28.98;16.98;;;;;;;-143.21;85.72;71392.06;5109990;28;20207;-78
2023/07/05 05:09:36;;;;;;;22.08;15.85;;;;;;;-143.21;85.55;71388.09;5109613;28;20203;-78
2023/07/05 05:12:05;;;;;;;22.90;15.65;;;;;;;-143.21;85.08;71376.22;5109473;28;20871;-78
2023/07/05 05:14:33;;;;;;;23.73;15.77;;;;;;;-143.21;84.17;71364.31;5109870;28;20200;-78
2023/07/05 05:17:00;;;;;;;26.73;16.83;;;;;;;-143.21;83.94;71366.31;5109127;27;20238;-77
2023/07/05 05:19:27;;;;;;;25.92;15.77;;;;;;;-143.21;84.16;71354.41;5112492;27;20195;-78
2023/07/05 05:21:53;;;;;;;26.85;16.70;;;;;;;-143.21;83.58;71366.31;5109029;28;20196;-78
2023/07/05 05:24:20;;;;;;;27.50;17.50;;;;;;;-143.21;83.97;71368.28;5113876;27;20719;-78
2023/07/05 05:26:47;;;;;;;33.67;17.90;;;;;;;-143.21;83.99;71364.31;5111559;28;20199;-78
2023/07/05 05:29:15;;;;;;;24.95;17.15;;;;;;;-143.21;83.45;71350.44;5109418;28;20207;-78
2023/07/05 05:31:42;;;;;;;23.40;16.77;;;;;;;-143.21;83.02;71342.50;5108890;28;20589;-78
2023/07/05 05:34:09;;;;;;;25.33;17.70;;;;;;;-143.21;83.06;71330.63;5108738;28;20344;-78
2023/07/05 05:36:36;;;;;;;31.13;17.60;;;;;;;-143.21;82.54;71326.66;5112036;28;20223;-77
2023/07/05 05:39:03;;;;;;;25.35;17.10;;;;;;;-143.21;82.36;71324.66;5111309;28;20212;-78
2023/07/05 05:41:33;;;;;;;23.67;16.75;;;;;;;-143.21;82.09;71322.69;5111500;28;20330;-78
2023/07/05 05:43:59;;;;;;;26.80;17.98;;;;;;;-143.21;81.68;71316.75;5108640;28;20212;-78
2023/07/05 05:46:28;;;;;;;27.42;16.55;;;;;;;-143.21;81.23;71308.81;5108467;28;20214;-79
2023/07/05 05:48:55;;;;;;;27.80;16.80;;;;;;;-143.21;81.29;71304.84;5108329;28;20205;-79
2023/07/05 05:51:21;;;;;;;26.88;17.60;;;;;;;-143.21;81.32;71304.84;5107432;28;20282;-79
2023/07/05 05:53:48;;;;;;;24.50;16.58;;;;;;;-143.21;81.18;71292.94;5109283;28;20211;-79
2023/07/05 05:56:15;;;;;;;22.83;16.75;;;;;;;-143.21;81.36;71292.94;5113619;28;20286;-77
2023/07/05 05:58:42;;;;;;;23.98;16.60;;;;;;;-143.21;81.47;71287.00;5110650;28;20208;-78
2023/07/05 06:01:12;;;;;;;25.58;17.92;;;;;;;-143.21;80.70;71277.09;5113075;27;20680;-79
2023/07/05 06:03:40;;;;;;;23.92;17.92;;;;;;;-143.21;79.76;71263.22;5112913;27;20569;-79
2023/07/05 06:06:07;;;;;;;24.45;17.50;;;;;;;-143.21;79.71;71257.25;5113508;27;20218;-79
2023/07/05 06:08:34;;;;;;;32.83;21.73;;;;;;;-143.21;79.72;71245.38;5112081;27;20192;-78
2023/07/05 06:11:03;;;;;;;29.85;18.45;;;;;;;-143.21;79.83;71231.50;5112257;28;21199;-79
2023/07/05 06:13:31;;;;;;;29.58;17.55;;;;;;;-143.21;80.03;71227.53;5112738;27;20268;-78
2023/07/05 06:16:01;;;;;;;28.50;18.15;;;;;;;-143.21;79.85;71225.53;5111623;27;20204;-79
2023/07/05 06:18:28;;;;;;;22.85;17.65;;;;;;;-143.21;79.20;71209.69;5111664;27;20220;-76
2023/07/05 06:20:57;;;;;;;27.98;18.30;;;;;;;-143.21;79.19;71207.69;5109865;28;20203;-76
2023/07/05 06:23:24;;;;;;;28.77;17.60;;;;;;;-143.21;78.58;71199.78;5109266;28;20211;-75
2023/07/05 06:25:51;;;;;;;27.17;18.38;;;;;;;-143.21;78.50;71197.78;5109524;28;20290;-77
2023/07/05 06:28:22;;;;;;;24.73;17.38;;;;;;;-143.21;77.63;71183.91;5109927;27;20588;-76
2023/07/05 06:30:48;;;;;;;22.15;17.58;;;;;;;-143.21;77.93;71179.94;5108456;27;20214;-77
2023/07/05 06:33:16;;;;;;;26.38;18.30;;;;;;;-143.21;77.27;71175.97;5109133;28;20210;-76
2023/07/05 06:35:48;;;;;;;31.33;16.60;;;;;;;-143.21;77.18;71164.09;5109391;27;20244;-76
2023/07/05 06:38:17;;;;;;;26.15;17.10;;;;;;;-143.21;77.11;71154.16;5109249;28;20216;-77
2023/07/05 06:40:44;;;;;;;27.45;16.88;;;;;;;-143.21;75.92;71140.28;5109540;28;20204;-74
2023/07/05 06:43:10;;;;;;;22.80;16.95;;;;;;;-143.21;75.58;71134.34;5109412;27;20208;-74
2023/07/05 06:45:37;;;;;;;27.73;16.48;;;;;;;-143.21;75.81;71120.47;5109174;28;20214;-75
2023/07/05 06:48:04;;;;;;;31.98;17.60;;;;;;;-143.21;75.62;71112.53;5108957;28;20224;-75
2023/07/05 06:50:31;;;;;;;29.60;17.05;;;;;;;-143.21;75.32;71102.63;5110042;28;20284;-75
2023/07/05 06:52:58;;;;;;;29.20;17.27;;;;;;;-143.21;75.34;71092.72;5107607;28;20207;-80
2023/07/05 06:55:26;;;;;;;24.15;16.85;;;;;;;-143.21;74.96;71086.75;5115784;27;20208;-80
2023/07/05 06:57:53;;;;;;;24.77;16.90;;;;;;;-143.21;74.15;71072.88;5115973;27;20231;-81
2023/07/05 07:00:20;;;;;;;28.75;16.92;;;;;;;-143.21;73.54;71057.03;5111404;28;20195;-78
2023/07/05 07:02:47;;;;;;;29.42;17.25;;;;;;;-143.21;73.36;71049.09;5117041;27;20218;-79
2023/07/05 07:05:15;;;;;;;26.83;16.63;;;;;;;-143.21;72.96;71035.22;5109310;28;20302;-78
2023/07/05 07:07:41;;;;;;;20.95;14.93;;;;;;;-143.21;72.58;71027.28;5110577;28;20570;-79
2023/07/05 07:10:09;;;;;;;19.98;13.98;;;;;;;-143.21;71.89;71007.47;5110474;28;20207;-79
2023/07/05 07:12:37;;;;;;;26.20;14.73;;;;;;;-143.21;71.67;70993.59;5111062;28;20207;-81
2023/07/05 07:15:04;;;;;;;17.73;12.90;;;;;;;-143.21;71.90;70987.66;5113254;27;20207;-80
2023/07/05 07:17:31;;;;;;;22.75;12.65;;;;;;;-143.21;70.38;70975.75;5110552;28;20242;-82
2023/07/05 07:19:58;;;;;;;17.85;12.27;;;;;;;-143.21;70.05;70961.88;5112340;27;20880;-79
2023/07/05 07:22:25;;;;;;;19.73;12.35;;;;;;;-143.21;69.60;70944.03;5115011;27;20628;-79
2023/07/05 07:24:52;;;;;;;21.35;10.73;;;;;;;-143.21;69.71;70932.13;5114074;27;20211;-79
2023/07/05 07:27:19;;;;;;;23.38;11.85;;;;;;;-143.21;67.18;70914.31;5109625;27;20230;-77
2023/07/05 07:29:47;;;;;;;22.95;12.75;;;;;;;-143.21;67.96;70900.41;5108169;27;20200;-78
2023/07/05 07:32:14;;;;;;;17.85;11.77;;;;;;;-143.21;67.87;70892.50;5108595;27;20204;-77
2023/07/05 07:34:41;;;;;;;18.40;11.07;;;;;;;-143.21;67.61;70888.53;5109136;27;20255;-78
2023/07/05 07:37:08;;;;;;;17.70;10.57;;;;;;;-143.21;67.83;70878.63;5115091;27;20200;-80
2023/07/05 07:39:34;;;;;;;21.15;11.00;;;;;;;-143.21;67.65;70866.72;5115147;27;20689;-80
2023/07/05 07:42:01;;;;;;;16.90;11.75;;;;;;;-143.21;67.29;70862.75;5111180;28;20896;-79
2023/07/05 07:44:28;;;;;;;17.10;11.82;;;;;;;-143.21;66.08;70850.88;5109638;28;20700;-80
2023/07/05 07:46:58;;;;;;;17.95;11.93;;;;;;;-143.21;64.91;70842.94;5110037;28;20203;-80
2023/07/05 07:49:25;;;;;;;16.30;11.70;;;;;;;-143.21;64.96;70838.97;5110572;28;20196;-83
2023/07/05 07:51:52;;;;;;;19.08;11.80;;;;;;;-143.21;65.38;70827.06;5114041;27;20848;-81
2023/07/05 07:54:26;;;;;;;19.40;12.07;;;;;;;-143.21;65.04;70817.16;5120278;27;20195;-81
2023/07/05 07:56:55;;;;;;;16.13;11.43;;;;;;;-143.21;64.56;70813.19;5111012;28;20287;-80
2023/07/05 07:59:23;;;;;;;16.55;12.38;;;;;;;-143.21;64.58;70801.31;5118077;27;20207;-84
2023/07/05 08:01:50;;;;;;;14.13;11.02;;;;;;;-143.21;64.36;70789.41;5112379;28;20208;-84
2023/07/05 08:04:19;;;;;;;18.23;11.27;;;;;;;-143.21;64.58;70791.41;5114862;27;20219;-79
2023/07/05 08:06:48;;;;;;;19.75;11.40;;;;;;;-143.21;63.58;70785.44;5111061;28;20192;-80
2023/07/05 08:09:16;;;;;;;22.38;12.02;;;;;;;-143.21;62.65;70757.69;5112522;28;20263;-79
2023/07/05 08:11:43;;;;;;;20.15;11.10;;;;;;;-143.21;62.61;70733.91;5112197;28;20689;-80
2023/07/05 08:14:13;;;;;;;14.68;10.80;;;;;;;-143.21;62.22;70712.09;5112193;28;20188;-79
2023/07/05 08:16:40;;;;;;;22.42;11.43;;;;;;;-143.21;61.82;70698.22;5112165;28;20283;-80
2023/07/05 08:19:07;;;;;;;13.98;10.68;;;;;;;-143.21;61.31;70678.41;5112547;28;20588;-80
2023/07/05 08:21:36;;;;;;;17.95;10.95;;;;;;;-143.21;61.11;70664.53;5112439;28;20283;-80
2023/07/05 08:24:07;;;;;;;14.73;10.52;;;;;;;-143.21;60.53;70644.72;5113282;28;20200;-80
2023/07/05 08:26:35;;;;;;;21.48;10.70;;;;;;;-143.21;60.26;70630.84;5115078;28;20267;-81
2023/07/05 08:29:02;;;;;;;16.23;10.88;;;;;;;-143.21;58.89;70626.88;5113636;28;20189;-81
2023/07/05 08:31:30;;;;;;;14.27;10.23;;;;;;;-143.21;59.04;70611.00;5112495;28;20663;-80
2023/07/05 08:33:56;;;;;;;16.17;10.18;;;;;;;-143.21;58.88;70607.06;5111462;28;20249;-80
2023/07/05 08:36:33;;;;;;;15.30;10.23;;;;;;;-143.21;58.68;70597.13;5113012;28;20239;-81
2023/07/05 08:39:05;;;;;;;14.45;10.13;;;;;;;-143.21;58.58;70581.28;5114035;28;20310;-79
2023/07/05 08:41:44;;;;;;;12.65;10.70;;;;;;;-143.21;58.77;70559.47;5115483;28;20275;-80
2023/07/05 08:44:19;;;;;;;10.82;9.68;;;;;;;-143.21;58.10;70545.59;5113623;28;20581;-80
2023/07/05 08:46:49;;;;;;;17.63;11.23;;;;;;;-143.21;57.78;70529.75;5110198;28;20199;-79
2023/07/05 08:49:21;;;;;;;15.52;10.32;;;;;;;-143.21;58.00;70517.84;5111065;28;20195;-79
2023/07/05 08:51:48;;;;;;;16.77;10.45;;;;;;;-143.21;57.29;70500.00;5111580;28;20283;-82
2023/07/05 08:54:16;;;;;;;20.50;11.35;;;;;;;-143.21;57.03;70492.09;5116888;28;20269;-82
2023/07/05 08:56:50;;;;;;;15.25;10.63;;;;;;;-143.21;56.80;70482.19;5112112;28;20196;-86
2023/07/05 08:59:25;;;;;;;16.63;10.55;;;;;;;-143.21;56.56;70472.25;5110478;27;20257;-82
2023/07/05 09:01:57;;;;;;;12.00;10.50;;;;;;;-143.21;56.71;70476.22;5110725;28;20208;-83
2023/07/05 09:04:27;;;;;;;15.48;10.35;;;;;;;-143.21;57.02;70464.34;5111523;28;20215;-83
2023/07/05 09:07:02;;;;;;;15.32;10.13;;;;;;;-143.21;57.06;70446.50;5111884;28;20581;-83
2023/07/05 09:09:48;;;;;;;12.45;9.57;;;;;;;-143.21;56.03;70420.72;5111123;28;20184;-80
2023/07/05 09:12:25;;;;;;;13.25;10.07;;;;;;;-143.21;56.10;70406.84;5111940;28;20176;-82
2023/07/05 09:15:11;;;;;;;17.92;10.55;;;;;;;-143.21;56.58;70387.03;5111507;28;20200;-82
2023/07/05 09:17:49;;;;;;;11.77;10.25;;;;;;;-143.21;56.26;70375.16;5111692;28;20184;-82
2023/07/05 09:20:32;;;;;;;16.95;10.40;;;;;;;-143.21;56.08;70361.28;5112116;28;20207;-82
2023/07/05 09:23:01;;;;;;;13.90;10.43;;;;;;;-143.21;55.56;70341.44;5111997;28;20180;-83
2023/07/05 09:25:33;;;;;;;17.25;10.60;;;;;;;-143.21;55.20;70333.53;5110270;28;20196;-79
2023/07/05 09:28:08;;;;;;;12.40;9.75;;;;;;;-143.21;54.98;70329.56;5109762;28;20203;-79
2023/07/05 09:30:36;;;;;;;14.68;10.07;;;;;;;-143.21;54.48;70323.63;5110778;28;20198;-82
2023/07/05 09:33:08;;;;;;;16.50;10.27;;;;;;;-143.21;54.61;70325.59;5112297;28;20248;-82
2023/07/05 09:35:37;;;;;;;14.98;10.27;;;;;;;-143.21;54.20;70323.63;5132123;27;20219;-83
2023/07/05 09:38:12;;;;;;;33.78;18.02;;;;;;;-143.21;55.21;70315.69;5114240;27;20223;-83
2023/07/05 09:40:46;;;;;;;26.05;15.73;;;;;;;-143.21;55.19;70309.75;5110722;28;20858;-83
2023/07/05 09:43:17;;;;;;;18.02;13.20;;;;;;;-143.21;54.83;70305.78;5109569;28;20221;-82
2023/07/05 09:45:44;;;;;;;18.42;11.10;;;;;;;-143.21;54.16;70319.66;5110369;28;20245;-80
2023/07/05 09:48:13;;;;;;;13.63;9.75;;;;;;;-143.21;54.55;70315.69;5110452;28;20744;-81
2023/07/05 09:50:47;;;;;;;13.07;10.57;;;;;;;-143.21;54.51;70313.72;5110544;28;20196;-80
2023/07/05 09:53:28;;;;;;;16.27;10.25;;;;;;;-143.21;54.15;70309.75;5110802;28;20187;-80
2023/07/05 09:56:04;;;;;;;14.63;10.38;;;;;;;-143.21;53.37;70313.72;5112739;28;20205;-82
2023/07/05 09:58:33;;;;;;;13.07;9.10;;;;;;;-143.21;53.68;70315.69;5129845;28;20314;-81
2023/07/05 10:01:04;;;;;;;16.02;9.52;;;;;;;-143.21;53.95;70321.63;5119361;28;20261;-81
2023/07/05 10:03:35;;;;;;;14.27;9.85;;;;;;;-143.21;54.19;70313.72;5122668;28;20669;-82
2023/07/05 10:06:07;;;;;;;17.45;9.95;;;;;;;-143.21;54.04;70313.72;5118719;28;20251;-82
2023/07/05 10:08:44;;;;;;;11.68;9.30;;;;;;;-143.21;53.83;70321.63;5110212;28;20236;-82
2023/07/05 10:11:23;;;;;;;13.25;9.48;;;;;;;-143.21;53.51;70325.59;5110784;28;20177;-82
2023/07/05 10:14:12;;;;;;;31.85;15.75;;;;;;;-143.21;53.33;70327.56;5110995;28;20181;-82
2023/07/05 10:16:49;;;;;;;33.92;19.48;;;;;;;-143.21;53.76;70305.78;5110925;28;20196;-84
2023/07/05 10:19:29;;;;;;;17.15;11.45;;;;;;;-143.21;53.20;70307.75;5110996;28;20212;-81
2023/07/05 10:22:02;;;;;;;20.63;12.80;;;;;;;-143.21;53.07;70305.78;5110118;28;20298;-79
2023/07/05 10:24:34;;;;;;;17.83;11.48;;;;;;;-143.21;52.62;70297.84;5109308;28;20259;-80
2023/07/05 10:27:24;;;;;;;21.08;11.48;;;;;;;-143.21;52.51;70276.03;5110523;28;20192;-80
2023/07/05 10:30:00;;;;;;;27.05;15.05;;;;;;;-143.21;52.91;70258.22;5110021;28;20584;-84
2023/07/05 10:32:31;;;;;;;22.35;12.88;;;;;;;-143.21;53.01;70232.44;5110468;28;20249;-81
2023/07/05 10:34:59;;;;;;;16.25;10.38;;;;;;;-143.21;52.34;70202.72;5110475;28;20233;-82
2023/07/05 10:37:31;;;;;;;20.77;13.23;;;;;;;-143.21;52.11;70167.03;5110871;28;20181;-82
2023/07/05 10:40:00;;;;;;;16.27;9.10;;;;;;;-143.21;51.01;70167.03;5110446;28;20959;-82
2023/07/05 10:42:33;;;;;;;36.75;19.48;;;;;;;-143.21;51.78;70165.06;5110232;28;20674;-80
2023/07/05 10:45:02;;;;;;;18.98;11.43;;;;;;;-143.21;50.31;70180.91;5110742;28;20231;-82
2023/07/05 10:47:31;;;;;;;12.18;8.15;;;;;;;-143.21;50.81;70178.94;5114645;28;20283;-82
2023/07/05 10:50:04;;;;;;;19.58;11.73;;;;;;;-143.21;50.69;70184.88;5114174;28;20196;-82
2023/07/05 10:52:34;;;;;;;22.73;14.82;;;;;;;-143.21;50.70;70234.44;5111634;28;20260;-82
2023/07/05 10:55:07;;;;;;;12.48;9.38;;;;;;;-143.21;51.11;70254.25;5113847;28;20589;-82
2023/07/05 10:57:39;;;;;;;13.13;8.10;;;;;;;-143.21;50.72;70278.03;5113300;28;20196;-81
2023/07/05 11:00:21;;;;;;;9.30;8.38;;;;;;;-143.21;51.28;70305.78;5113660;28;20222;-81
2023/07/05 11:02:55;;;;;;;12.57;8.05;;;;;;;-143.21;51.78;70301.81;5114107;28;20177;-82
2023/07/05 11:05:26;;;;;;;14.00;8.15;;;;;;;-143.21;52.55;70303.78;5114773;28;20598;-82
2023/07/05 11:07:58;;;;;;;18.58;8.48;;;;;;;-143.21;51.57;70323.63;5113946;28;20211;-83
2023/07/05 11:10:26;;;;;;;9.50;8.18;;;;;;;-143.21;51.47;70337.50;5113743;28;20287;-84
2023/07/05 11:12:54;;;;;;;9.85;7.43;;;;;;;-143.21;51.96;70341.44;5114101;28;20203;-84